Time;durP1;ratioP1;P1;durP2;ratioP2;P2;SDS_P1;SDS_P2;PMS_P1;PMS_P2;Temp;Humidity;BMP_temperature;BMP_pressure;BME280_temperature;BME280_humidity;BME280_pressure;Samples;Min_cycle;Max_cycle;Signal;HPM_P1;HPM_P2
2021/10/08 00:02:02;;;;;;;6.73;4.80;;;6.50;99.90;;;;;;4995858;28;20208;-76
2021/10/08 00:04:29;;;;;;;6.73;4.93;;;6.50;99.90;;;;;;4983249;28;20237;-76
2021/10/08 00:06:56;;;;;;;6.27;5.03;;;6.50;99.90;;;;;;4989967;28;20225;-76
2021/10/08 00:09:28;;;;;;;5.47;4.43;;;6.60;99.90;;;;;;4981380;28;20646;-76
2021/10/08 00:11:56;;;;;;;6.90;4.70;;;6.60;99.90;;;;;;4992075;28;20223;-77
2021/10/08 00:14:23;;;;;;;5.60;4.50;;;6.60;99.90;;;;;;5005130;28;20212;-77
2021/10/08 00:16:50;;;;;;;6.37;4.40;;;6.60;99.90;;;;;;4988898;28;20206;-77
2021/10/08 00:19:17;;;;;;;5.57;4.77;;;6.70;99.90;;;;;;4987729;28;20205;-77
2021/10/08 00:21:44;;;;;;;5.43;4.40;;;6.80;99.90;;;;;;4977857;28;20269;-77
2021/10/08 00:24:11;;;;;;;6.33;4.57;;;6.80;99.90;;;;;;4988104;28;20205;-76
2021/10/08 00:26:41;;;;;;;6.37;4.87;;;6.50;99.90;;;;;;4988993;28;20281;-77
2021/10/08 00:29:08;;;;;;;5.60;4.27;;;6.30;99.90;;;;;;4981277;28;20232;-77
2021/10/08 00:31:35;;;;;;;8.27;4.70;;;6.30;99.90;;;;;;4990402;28;20212;-76
2021/10/08 00:34:02;;;;;;;5.90;4.63;;;6.20;99.90;;;;;;4979806;28;20596;-76
2021/10/08 00:36:29;;;;;;;6.30;4.33;;;6.30;99.90;;;;;;4991814;28;20205;-77
2021/10/08 00:38:56;;;;;;;5.17;4.10;;;6.40;99.90;;;;;;4984834;28;20198;-76
2021/10/08 00:41:25;;;;;;;5.00;3.83;;;6.50;99.90;;;;;;4984909;28;20201;-76
2021/10/08 00:43:54;;;;;;;5.30;4.60;;;6.60;99.90;;;;;;4993458;28;20265;-77
2021/10/08 00:46:22;;;;;;;5.93;4.10;;;6.60;99.90;;;;;;4986405;28;20205;-76
2021/10/08 00:48:51;;;;;;;7.93;5.23;;;6.70;99.90;;;;;;4988705;28;20312;-77
2021/10/08 00:51:18;;;;;;;6.30;4.53;;;6.80;99.90;;;;;;4985504;28;20209;-77
2021/10/08 00:53:45;;;;;;;5.80;4.40;;;6.80;99.90;;;;;;4981561;28;20205;-77
2021/10/08 00:56:13;;;;;;;6.73;4.90;;;6.80;99.90;;;;;;4992853;28;20252;-77
2021/10/08 00:58:43;;;;;;;6.53;4.60;;;6.90;99.90;;;;;;4989272;28;20205;-77
2021/10/08 01:01:15;;;;;;;7.17;4.33;;;6.80;99.90;;;;;;4983526;28;20197;-77
2021/10/08 01:03:43;;;;;;;6.13;4.87;;;6.70;99.90;;;;;;4985071;28;20220;-76
2021/10/08 01:06:11;;;;;;;6.00;4.60;;;6.80;99.90;;;;;;4984517;28;20236;-76
2021/10/08 01:08:38;;;;;;;6.53;4.73;;;6.80;99.90;;;;;;4993288;28;20333;-77
2021/10/08 01:11:06;;;;;;;6.10;4.50;;;6.80;99.90;;;;;;4986386;28;20197;-77
2021/10/08 01:13:33;;;;;;;5.27;4.60;;;6.70;99.90;;;;;;4976975;28;20233;-76
2021/10/08 01:16:00;;;;;;;5.90;4.60;;;6.60;99.90;;;;;;4993203;28;20225;-77
2021/10/08 01:18:29;;;;;;;5.60;3.83;;;6.50;99.90;;;;;;4977841;28;20217;-77
2021/10/08 01:20:57;;;;;;;4.80;4.07;;;6.30;99.90;;;;;;4988232;28;20212;-76
2021/10/08 01:23:24;;;;;;;5.57;4.20;;;6.30;99.90;;;;;;4992658;28;20275;-76
2021/10/08 01:25:52;;;;;;;6.63;4.40;;;6.40;99.90;;;;;;4992492;28;20613;-76
2021/10/08 01:28:20;;;;;;;6.03;5.00;;;6.50;99.90;;;;;;4986494;28;20236;-76
2021/10/08 01:30:47;;;;;;;5.27;4.30;;;6.30;99.90;;;;;;4991322;28;20234;-77
2021/10/08 01:33:14;;;;;;;5.77;4.83;;;6.30;99.90;;;;;;4980597;28;20201;-76
2021/10/08 01:35:41;;;;;;;6.83;4.50;;;6.10;99.90;;;;;;4992220;28;20201;-76
2021/10/08 01:38:10;;;;;;;5.07;4.57;;;6.30;99.90;;;;;;4990584;28;20275;-76
2021/10/08 01:40:37;;;;;;;8.47;4.53;;;6.30;99.90;;;;;;4994346;28;20205;-77
2021/10/08 01:43:04;;;;;;;8.40;5.27;;;6.30;99.90;;;;;;4985043;28;20264;-77
2021/10/08 01:45:31;;;;;;;7.73;5.57;;;6.40;99.90;;;;;;4993144;28;20613;-68
2021/10/08 01:47:58;;;;;;;6.20;4.63;;;6.60;99.90;;;;;;4991417;28;20228;-69
2021/10/08 01:50:25;;;;;;;6.33;4.87;;;6.80;99.90;;;;;;4993639;28;20532;-69
2021/10/08 01:52:52;;;;;;;7.30;5.63;;;6.70;99.90;;;;;;4982246;28;20652;-69
2021/10/08 01:55:21;;;;;;;7.77;5.77;;;6.80;99.90;;;;;;4983919;28;20197;-69
2021/10/08 01:57:48;;;;;;;5.00;4.07;;;6.70;99.90;;;;;;4982175;28;20261;-69
2021/10/08 02:00:15;;;;;;;7.80;5.30;;;6.70;99.90;;;;;;4991108;28;20252;-69
2021/10/08 02:02:42;;;;;;;4.80;4.17;;;6.70;99.90;;;;;;4978278;28;20209;-69
2021/10/08 02:05:10;;;;;;;7.33;3.97;;;6.40;99.90;;;;;;4987583;28;20236;-69
2021/10/08 02:07:37;;;;;;;6.37;4.27;;;5.80;99.90;;;;;;4986364;28;20221;-69
2021/10/08 02:10:05;;;;;;;5.40;4.07;;;5.90;99.90;;;;;;4986070;28;20631;-69
2021/10/08 02:12:35;;;;;;;4.47;4.00;;;6.00;99.90;;;;;;4989675;28;20213;-69
2021/10/08 02:15:02;;;;;;;5.20;4.20;;;6.10;99.90;;;;;;4990829;28;20271;-69
2021/10/08 02:17:29;;;;;;;5.30;3.70;;;5.90;99.90;;;;;;4982020;28;20715;-69
2021/10/08 02:19:56;;;;;;;14.70;4.70;;;5.70;99.90;;;;;;4986651;28;20210;-69
2021/10/08 02:22:23;;;;;;;3.93;3.20;;;5.50;99.90;;;;;;4988802;28;20209;-69
2021/10/08 02:24:50;;;;;;;4.53;3.50;;;5.40;99.90;;;;;;4974130;28;20261;-69
2021/10/08 02:27:17;;;;;;;4.63;3.90;;;5.50;99.90;;;;;;4983108;28;20208;-69
2021/10/08 02:29:46;;;;;;;6.03;3.87;;;5.70;99.90;;;;;;4986246;28;20260;-69
2021/10/08 02:32:13;;;;;;;5.97;4.20;;;5.90;99.90;;;;;;4976908;28;20269;-69
2021/10/08 02:34:40;;;;;;;4.30;3.37;;;5.90;99.90;;;;;;4990480;28;20205;-68
2021/10/08 02:37:07;;;;;;;2.90;2.70;;;5.80;99.90;;;;;;4985241;28;20232;-69
2021/10/08 02:39:34;;;;;;;3.13;2.83;;;5.80;99.90;;;;;;4990248;28;20241;-69
2021/10/08 02:42:01;;;;;;;3.57;3.27;;;5.60;99.90;;;;;;4982162;28;20622;-69
2021/10/08 02:44:28;;;;;;;3.13;2.83;;;5.50;99.90;;;;;;4986259;28;20263;-69
2021/10/08 02:46:57;;;;;;;5.17;3.53;;;5.70;99.90;;;;;;4981989;28;20213;-69
2021/10/08 02:49:24;;;;;;;6.00;3.90;;;5.90;99.90;;;;;;4990729;28;20212;-69
2021/10/08 02:51:51;;;;;;;12.53;4.57;;;6.00;99.90;;;;;;4988517;28;20205;-69
2021/10/08 02:54:18;;;;;;;16.57;4.90;;;6.10;99.90;;;;;;4989504;28;20209;-69
2021/10/08 02:56:45;;;;;;;8.17;4.93;;;5.90;99.90;;;;;;4985906;28;20252;-69
2021/10/08 02:59:13;;;;;;;11.97;4.23;;;6.00;99.90;;;;;;4974726;28;20237;-69
2021/10/08 03:01:40;;;;;;;10.03;4.60;;;6.00;99.90;;;;;;4980921;28;20240;-68
2021/10/08 03:04:08;;;;;;;20.87;4.93;;;6.00;99.90;;;;;;4979564;28;20492;-69
2021/10/08 03:06:35;;;;;;;10.30;4.57;;;5.80;99.90;;;;;;4986321;28;20570;-69
2021/10/08 03:09:02;;;;;;;13.53;4.83;;;5.80;99.90;;;;;;4984168;28;20263;-69
2021/10/08 03:11:29;;;;;;;10.90;4.70;;;5.80;99.90;;;;;;4979390;28;20205;-68
2021/10/08 03:13:56;;;;;;;10.10;4.70;;;5.80;99.90;;;;;;4974960;28;20291;-69
2021/10/08 03:16:23;;;;;;;7.13;5.00;;;6.00;99.90;;;;;;4987765;28;20209;-69
2021/10/08 03:18:50;;;;;;;7.67;5.30;;;6.10;99.90;;;;;;4982947;28;20729;-69
2021/10/08 03:21:19;;;;;;;8.33;4.90;;;6.00;99.90;;;;;;4984810;28;20292;-69
2021/10/08 03:23:46;;;;;;;12.83;6.03;;;6.10;99.90;;;;;;4985895;28;20201;-69
2021/10/08 03:26:13;;;;;;;9.83;5.63;;;5.80;99.90;;;;;;4987606;28;20252;-69
2021/10/08 03:28:40;;;;;;;13.67;5.93;;;5.70;99.90;;;;;;4986319;28;20531;-69
2021/10/08 03:31:07;;;;;;;9.23;5.93;;;5.50;99.90;;;;;;4989724;28;20237;-69
2021/10/08 03:33:34;;;;;;;9.20;5.87;;;5.60;99.90;;;;;;4992503;28;20204;-69
2021/10/08 03:36:01;;;;;;;8.17;5.37;;;5.50;99.90;;;;;;4991592;28;20636;-69
2021/10/08 03:38:31;;;;;;;8.63;5.33;;;5.70;99.90;;;;;;4985512;28;20613;-69
2021/10/08 03:41:07;;;;;;;8.90;4.90;;;5.60;99.90;;;;;;4984649;28;20260;-69
2021/10/08 03:43:34;;;;;;;9.33;5.57;;;5.60;99.90;;;;;;4979755;28;20256;-69
2021/10/08 03:46:05;;;;;;;9.43;5.30;;;5.50;99.90;;;;;;4984915;28;20275;-69
2021/10/08 03:48:58;;;;;;;9.20;5.90;;;5.50;99.90;;;;;;4990846;28;20225;-69
2021/10/08 03:51:27;;;;;;;9.30;5.80;;;5.40;99.90;;;;;;4959213;28;20205;-70
2021/10/08 03:53:56;;;;;;;10.27;6.47;;;5.40;99.90;;;;;;4976979;28;20202;-69
2021/10/08 03:56:23;;;;;;;18.43;6.23;;;5.50;99.90;;;;;;4983334;28;20649;-69
2021/10/08 03:58:50;;;;;;;25.27;6.97;;;5.40;99.90;;;;;;4977664;28;20245;-69
2021/10/08 04:01:17;;;;;;;8.90;5.70;;;5.20;99.90;;;;;;4992179;28;20273;-69
2021/10/08 04:03:44;;;;;;;8.37;5.30;;;5.20;99.90;;;;;;4986129;28;20237;-69
2021/10/08 04:06:11;;;;;;;7.67;4.93;;;5.30;99.90;;;;;;4981859;28;20267;-69
2021/10/08 04:08:38;;;;;;;8.03;5.43;;;5.30;99.90;;;;;;4993584;28;20256;-69
2021/10/08 04:11:08;;;;;;;9.07;5.20;;;5.40;99.90;;;;;;4988758;28;20205;-69
2021/10/08 04:13:35;;;;;;;7.43;5.00;;;5.50;99.90;;;;;;4994636;28;20201;-69
2021/10/08 04:16:02;;;;;;;13.93;5.80;;;5.60;99.90;;;;;;4994919;28;20675;-69
2021/10/08 04:18:29;;;;;;;11.90;5.67;;;5.60;99.90;;;;;;4980410;28;20209;-69
2021/10/08 04:20:56;;;;;;;9.37;5.73;;;5.50;99.90;;;;;;4988060;28;20660;-69
2021/10/08 04:23:23;;;;;;;10.30;5.40;;;5.50;99.90;;;;;;4982667;28;20229;-69
2021/10/08 04:25:51;;;;;;;11.50;6.10;;;5.60;99.90;;;;;;4975686;28;20252;-69
2021/10/08 04:28:20;;;;;;;11.20;5.53;;;5.60;99.90;;;;;;4979058;28;20233;-69
2021/10/08 04:30:47;;;;;;;13.70;5.67;;;5.60;99.90;;;;;;4985711;28;20267;-69
2021/10/08 04:33:15;;;;;;;13.03;5.90;;;5.40;99.90;;;;;;4988854;28;20619;-69
2021/10/08 04:35:43;;;;;;;16.20;6.00;;;5.20;99.90;;;;;;4993808;28;20236;-69
2021/10/08 04:38:10;;;;;;;13.57;5.50;;;5.30;99.90;;;;;;4986456;28;20561;-69
2021/10/08 04:40:37;;;;;;;15.70;6.70;;;5.40;99.90;;;;;;4975014;28;20663;-69
2021/10/08 04:43:04;;;;;;;17.30;6.87;;;5.50;99.90;;;;;;4987271;28;20538;-69
2021/10/08 04:45:33;;;;;;;23.47;7.43;;;5.50;99.90;;;;;;4974852;28;20747;-69
2021/10/08 04:48:00;;;;;;;10.83;5.80;;;5.70;99.90;;;;;;4993562;28;20246;-69
2021/10/08 04:50:27;;;;;;;20.77;6.97;;;5.90;99.90;;;;;;4993585;28;20256;-69
2021/10/08 04:52:54;;;;;;;24.50;6.63;;;5.90;99.90;;;;;;4977830;28;20288;-69
2021/10/08 04:55:22;;;;;;;26.93;6.10;;;5.80;99.90;;;;;;4979451;28;20235;-69
2021/10/08 04:57:49;;;;;;;20.83;6.83;;;5.70;99.90;;;;;;4977995;28;20206;-69
2021/10/08 05:00:17;;;;;;;15.43;6.47;;;5.80;99.90;;;;;;4975546;28;20338;-69
2021/10/08 05:02:45;;;;;;;28.40;6.70;;;5.90;99.90;;;;;;4992889;28;20252;-69
2021/10/08 05:05:12;;;;;;;14.40;5.80;;;5.80;99.90;;;;;;4993452;28;20259;-69
2021/10/08 05:07:39;;;;;;;8.57;5.27;;;5.80;99.90;;;;;;4993154;28;20192;-69
2021/10/08 05:10:07;;;;;;;9.33;5.30;;;5.80;99.90;;;;;;4993851;28;20635;-69
2021/10/08 05:12:34;;;;;;;15.57;6.97;;;5.80;99.90;;;;;;4981726;28;20233;-69
2021/10/08 05:15:01;;;;;;;13.90;5.60;;;5.60;99.90;;;;;;4982956;28;20687;-69
2021/10/08 05:17:28;;;;;;;27.10;5.93;;;5.50;99.90;;;;;;4982776;28;20202;-69
2021/10/08 05:19:56;;;;;;;11.13;5.70;;;5.40;99.90;;;;;;4973534;28;20549;-69
2021/10/08 05:22:23;;;;;;;13.23;5.43;;;5.40;99.90;;;;;;4984551;28;20731;-69
2021/10/08 05:24:50;;;;;;;19.80;5.77;;;5.50;99.90;;;;;;4974309;28;20202;-69
2021/10/08 05:27:17;;;;;;;15.50;7.67;;;5.60;99.90;;;;;;4981824;28;20204;-69
2021/10/08 05:29:44;;;;;;;21.97;7.00;;;5.60;99.90;;;;;;4993604;28;20687;-69
2021/10/08 05:32:11;;;;;;;14.17;6.33;;;5.70;99.90;;;;;;4985811;28;20575;-69
2021/10/08 05:34:40;;;;;;;13.97;5.87;;;5.60;99.90;;;;;;4974349;28;20237;-69
2021/10/08 05:37:09;;;;;;;11.57;6.20;;;5.50;99.90;;;;;;4979803;28;20300;-68
2021/10/08 05:39:36;;;;;;;14.27;5.80;;;5.40;99.90;;;;;;4993461;28;20205;-68
2021/10/08 05:42:03;;;;;;;15.33;6.03;;;5.40;99.90;;;;;;4988576;28;20322;-68
2021/10/08 05:44:30;;;;;;;12.30;5.97;;;5.30;99.90;;;;;;4977197;28;20628;-69
2021/10/08 05:46:57;;;;;;;11.57;5.67;;;5.40;99.90;;;;;;4990231;28;20230;-69
2021/10/08 05:49:24;;;;;;;14.53;6.30;;;5.40;99.90;;;;;;4972980;28;20225;-69
2021/10/08 05:51:51;;;;;;;9.90;6.33;;;5.60;99.90;;;;;;4976323;28;20256;-69
2021/10/08 05:54:19;;;;;;;18.20;6.47;;;5.60;99.90;;;;;;4993020;28;20205;-69
2021/10/08 05:56:46;;;;;;;30.27;6.63;;;5.70;99.90;;;;;;4992569;28;20205;-69
2021/10/08 05:59:13;;;;;;;26.73;6.57;;;5.80;99.90;;;;;;4992725;28;20209;-69
2021/10/08 06:01:42;;;;;;;17.70;6.50;;;5.70;99.90;;;;;;4992660;28;20716;-69
2021/10/08 06:04:09;;;;;;;20.73;6.10;;;5.90;99.90;;;;;;4992646;28;20677;-69
2021/10/08 06:06:36;;;;;;;32.57;6.17;;;5.90;99.90;;;;;;4993014;28;20247;-70
2021/10/08 06:09:03;;;;;;;21.43;7.00;;;5.80;99.90;;;;;;4974213;28;20249;-69
2021/10/08 06:11:32;;;;;;;18.17;7.00;;;5.90;99.90;;;;;;4977146;28;20205;-69
2021/10/08 06:13:59;;;;;;;20.83;6.50;;;6.10;99.90;;;;;;4990674;28;20251;-69
2021/10/08 06:16:26;;;;;;;18.93;6.83;;;6.20;99.90;;;;;;4991131;28;20208;-69
2021/10/08 06:18:55;;;;;;;22.57;7.10;;;6.10;99.90;;;;;;4980337;28;20209;-68
2021/10/08 06:21:22;;;;;;;18.50;6.73;;;6.20;99.90;;;;;;4992518;28;20656;-69
2021/10/08 06:23:48;;;;;;;14.70;6.40;;;6.20;99.90;;;;;;4991649;28;20596;-69
2021/10/08 06:26:15;;;;;;;19.07;6.07;;;6.20;99.90;;;;;;4993264;28;20252;-69
2021/10/08 06:28:44;;;;;;;16.20;6.77;;;6.30;99.90;;;;;;4978044;28;20617;-69
2021/10/08 06:31:11;;;;;;;17.97;6.80;;;6.30;99.90;;;;;;4993116;28;20248;-69
2021/10/08 06:33:38;;;;;;;20.13;6.90;;;6.30;99.90;;;;;;4987895;28;20197;-69
2021/10/08 06:36:05;;;;;;;20.23;6.73;;;6.40;99.90;;;;;;4991540;28;20243;-69
2021/10/08 06:38:32;;;;;;;18.03;7.00;;;6.40;99.90;;;;;;4992696;28;20309;-69
2021/10/08 06:40:59;;;;;;;23.77;7.97;;;6.30;99.90;;;;;;4991303;28;20303;-69
2021/10/08 06:43:26;;;;;;;25.50;8.13;;;6.40;99.90;;;;;;4982131;28;20241;-69
2021/10/08 06:45:55;;;;;;;21.10;6.53;;;6.50;99.90;;;;;;4984985;28;20622;-69
2021/10/08 06:48:22;;;;;;;23.83;7.93;;;6.50;99.90;;;;;;4991474;28;20197;-69
2021/10/08 06:50:49;;;;;;;33.50;7.00;;;6.60;99.90;;;;;;4987072;28;20314;-69
2021/10/08 06:53:16;;;;;;;19.47;6.70;;;6.60;99.90;;;;;;4989703;28;20205;-69
2021/10/08 06:55:43;;;;;;;17.57;7.07;;;6.60;99.90;;;;;;4990388;28;20207;-69
2021/10/08 06:58:10;;;;;;;15.37;7.50;;;6.50;99.90;;;;;;4989673;28;20205;-69
2021/10/08 07:00:37;;;;;;;16.67;7.37;;;6.80;99.90;;;;;;4987800;28;20209;-69
2021/10/08 07:03:06;;;;;;;20.93;7.17;;;6.90;99.90;;;;;;4988753;28;20547;-69
2021/10/08 07:05:33;;;;;;;25.10;7.30;;;7.00;99.90;;;;;;4988596;28;20742;-69
2021/10/08 07:08:01;;;;;;;22.50;7.70;;;6.90;99.90;;;;;;4990132;28;20259;-69
2021/10/08 07:10:28;;;;;;;32.93;7.37;;;6.90;99.90;;;;;;4993153;28;20228;-69
2021/10/08 07:12:55;;;;;;;31.87;7.67;;;6.90;99.90;;;;;;4989604;28;20204;-69
2021/10/08 07:15:23;;;;;;;23.40;7.20;;;7.00;99.90;;;;;;4988901;28;20227;-69
2021/10/08 07:17:53;;;;;;;23.20;7.27;;;7.00;99.90;;;;;;4994119;28;20269;-69
2021/10/08 07:20:24;;;;;;;20.33;8.03;;;7.00;99.90;;;;;;4991675;28;20288;-70
2021/10/08 07:22:51;;;;;;;18.20;6.07;;;7.00;99.90;;;;;;4994658;28;20324;-69
2021/10/08 07:25:19;;;;;;;11.97;5.90;;;7.20;99.90;;;;;;4995133;28;20255;-69
2021/10/08 07:27:47;;;;;;;19.47;6.33;;;7.30;99.90;;;;;;4991768;28;20248;-69
2021/10/08 07:30:16;;;;;;;15.20;6.60;;;7.40;99.90;;;;;;4991945;28;20581;-69
2021/10/08 07:32:43;;;;;;;9.97;6.40;;;7.50;99.90;;;;;;4989295;28;20281;-69
2021/10/08 07:35:11;;;;;;;15.43;6.07;;;7.40;99.90;;;;;;4991784;28;20208;-69
2021/10/08 07:37:40;;;;;;;18.13;6.77;;;7.40;99.90;;;;;;4988828;28;20204;-69
2021/10/08 07:40:10;;;;;;;26.27;7.30;;;7.40;99.90;;;;;;4992924;28;20205;-69
2021/10/08 07:42:38;;;;;;;22.90;6.23;;;7.60;99.90;;;;;;4985170;28;20296;-69
2021/10/08 07:45:07;;;;;;;12.53;6.83;;;7.60;99.90;;;;;;4993134;28;20209;-69
2021/10/08 07:47:34;;;;;;;12.37;6.30;;;7.60;99.90;;;;;;4986109;28;20197;-69
2021/10/08 07:50:01;;;;;;;15.50;7.40;;;7.80;99.90;;;;;;4992854;28;20229;-69
2021/10/08 07:52:28;;;;;;;10.20;6.63;;;7.90;99.90;;;;;;4990619;28;20267;-69
2021/10/08 07:54:57;;;;;;;44.00;7.07;;;7.90;99.90;;;;;;4990937;28;20256;-69
2021/10/08 07:57:24;;;;;;;9.33;5.83;;;7.50;99.90;;;;;;4991499;28;20236;-69
2021/10/08 07:59:51;;;;;;;11.57;6.53;;;7.80;99.90;;;;;;4993195;28;20210;-69
2021/10/08 08:02:18;;;;;;;10.73;6.17;;;8.00;99.90;;;;;;4990210;28;20205;-69
2021/10/08 08:04:46;;;;;;;12.13;5.93;;;8.00;99.90;;;;;;4990462;28;20216;-69
2021/10/08 08:07:13;;;;;;;9.90;5.87;;;7.90;99.90;;;;;;4992976;28;20233;-69
2021/10/08 08:09:40;;;;;;;13.63;6.47;;;8.10;99.90;;;;;;4993858;28;20221;-69
2021/10/08 08:12:09;;;;;;;14.40;6.90;;;8.20;99.90;;;;;;4994877;28;20626;-69
2021/10/08 08:14:36;;;;;;;12.40;7.27;;;8.30;99.90;;;;;;4989183;28;20201;-69
2021/10/08 08:17:03;;;;;;;11.73;6.77;;;8.40;99.90;;;;;;4994026;28;20263;-69
2021/10/08 08:19:30;;;;;;;10.70;7.17;;;8.40;99.90;;;;;;4993674;28;20201;-69
2021/10/08 08:21:57;;;;;;;11.97;8.23;;;8.60;99.90;;;;;;4994443;28;20939;-69
2021/10/08 08:24:24;;;;;;;16.70;8.37;;;8.60;99.90;;;;;;4991587;28;20285;-69
2021/10/08 08:26:51;;;;;;;11.60;8.27;;;8.60;99.90;;;;;;4994079;28;20240;-69
2021/10/08 08:29:19;;;;;;;13.60;8.80;;;8.90;99.90;;;;;;4993381;28;20235;-69
2021/10/08 08:31:46;;;;;;;15.90;8.50;;;9.20;99.90;;;;;;4993504;28;20237;-69
2021/10/08 08:34:13;;;;;;;12.40;9.10;;;9.20;99.90;;;;;;4991523;28;20723;-69
2021/10/08 08:36:40;;;;;;;13.47;8.93;;;9.40;99.90;;;;;;4993921;28;20201;-69
2021/10/08 08:39:10;;;;;;;12.80;9.30;;;9.50;99.90;;;;;;4992097;28;20233;-69
2021/10/08 08:41:38;;;;;;;14.23;9.57;;;9.60;99.90;;;;;;4994075;28;20205;-69
2021/10/08 08:44:06;;;;;;;15.17;10.13;;;9.50;99.90;;;;;;4992036;28;20205;-68
2021/10/08 08:46:35;;;;;;;16.67;10.97;;;9.70;99.90;;;;;;4993413;28;20232;-68
2021/10/08 08:49:02;;;;;;;15.70;11.27;;;9.70;99.90;;;;;;4987773;28;20252;-68
2021/10/08 08:51:31;;;;;;;17.33;11.47;;;9.70;99.90;;;;;;4993291;28;20229;-68
2021/10/08 08:54:01;;;;;;;17.77;11.23;;;9.90;99.90;;;;;;4988294;28;20453;-69
2021/10/08 08:56:28;;;;;;;22.33;12.90;;;9.90;99.90;;;;;;4992410;28;20209;-69
2021/10/08 08:58:59;;;;;;;22.10;11.90;;;10.00;99.90;;;;;;4991852;28;20303;-68
2021/10/08 09:01:26;;;;;;;20.50;12.13;;;9.90;99.90;;;;;;4988796;28;20248;-69
2021/10/08 09:04:03;;;;;;;22.50;12.20;;;10.00;99.90;;;;;;4989930;28;20288;-69
2021/10/08 09:06:31;;;;;;;22.27;12.20;;;10.20;99.90;;;;;;4990930;28;20243;-69
2021/10/08 09:08:58;;;;;;;19.23;12.70;;;10.40;99.90;;;;;;4991634;28;20723;-69
2021/10/08 09:11:38;;;;;;;17.47;11.10;;;10.40;99.90;;;;;;4991385;28;20271;-69
2021/10/08 09:14:18;;;;;;;17.83;11.13;;;10.50;99.90;;;;;;4986035;28;20776;-69
2021/10/08 09:17:08;;;;;;;19.17;12.07;;;10.60;99.90;;;;;;4990278;28;20299;-69
2021/10/08 09:19:54;;;;;;;19.83;12.53;;;11.00;99.90;;;;;;4990517;28;20196;-69
2021/10/08 09:22:24;;;;;;;20.67;12.80;;;11.20;99.90;;;;;;4991037;28;20319;-69
2021/10/08 09:24:52;;;;;;;19.90;12.43;;;11.30;99.90;;;;;;4991443;28;20205;-69
2021/10/08 09:27:21;;;;;;;18.00;11.17;;;11.30;99.90;;;;;;4989889;28;20256;-69
2021/10/08 09:29:50;;;;;;;16.17;10.87;;;11.30;99.90;;;;;;4988086;28;20237;-69
2021/10/08 09:32:18;;;;;;;21.53;13.17;;;11.40;99.90;;;;;;4987072;28;20695;-68
2021/10/08 09:34:47;;;;;;;17.00;10.90;;;11.60;99.90;;;;;;4989939;28;20198;-69
2021/10/08 09:37:16;;;;;;;19.80;11.13;;;11.70;99.90;;;;;;4986817;28;20682;-69
2021/10/08 09:39:44;;;;;;;24.30;11.67;;;11.90;99.90;;;;;;4987931;28;20663;-69
2021/10/08 09:42:13;;;;;;;15.80;10.43;;;12.10;99.90;;;;;;4991430;28;20216;-68
2021/10/08 09:44:46;;;;;;;19.47;11.93;;;12.20;99.90;;;;;;4991313;28;20263;-69
2021/10/08 09:47:15;;;;;;;21.33;11.67;;;12.40;99.90;;;;;;4974557;28;20260;-69
2021/10/08 09:49:44;;;;;;;15.00;10.37;;;12.60;99.90;;;;;;4988959;28;20237;-69
2021/10/08 09:52:26;;;;;;;16.70;12.23;;;12.70;99.90;;;;;;4991427;28;20224;-69
2021/10/08 09:54:55;;;;;;;18.93;11.53;;;12.50;99.90;;;;;;4984785;28;20638;-69
2021/10/08 09:57:23;;;;;;;19.77;11.83;;;12.60;99.90;;;;;;4991390;28;20197;-69
2021/10/08 09:59:50;;;;;;;17.17;11.60;;;12.60;99.90;;;;;;4986254;28;20240;-69
2021/10/08 10:02:18;;;;;;;17.80;11.67;;;12.50;99.90;;;;;;4985583;28;20659;-69
2021/10/08 10:05:05;;;;;;;20.80;12.30;;;12.60;99.90;;;;;;5081812;27;20890;-69
2021/10/08 10:07:33;;;;;;;19.80;12.17;;;12.70;99.90;;;;;;5077325;27;20745;-69
2021/10/08 10:10:00;;;;;;;18.40;11.67;;;12.90;99.90;;;;;;5057393;27;20234;-69
2021/10/08 10:12:27;;;;;;;21.63;13.60;;;13.10;99.90;;;;;;5043535;28;20282;-69
2021/10/08 10:14:54;;;;;;;18.93;13.00;;;13.10;99.90;;;;;;5037745;28;20715;-69
2021/10/08 10:17:21;;;;;;;21.00;12.67;;;13.30;99.90;;;;;;5037020;27;20199;-69
2021/10/08 10:19:49;;;;;;;18.53;11.80;;;13.20;99.90;;;;;;5037028;28;20257;-69
2021/10/08 10:22:20;;;;;;;19.40;12.10;;;13.40;99.90;;;;;;5042941;27;20612;-69
2021/10/08 10:24:48;;;;;;;20.50;12.27;;;13.50;99.90;;;;;;5044075;28;20231;-69
2021/10/08 10:27:17;;;;;;;19.47;13.67;;;13.50;99.90;;;;;;5035060;28;20273;-69
2021/10/08 10:29:47;;;;;;;18.80;12.73;;;13.50;99.90;;;;;;5034035;27;20211;-69
2021/10/08 10:32:16;;;;;;;19.10;12.73;;;13.60;99.90;;;;;;5040483;28;20199;-69
2021/10/08 10:34:43;;;;;;;16.73;11.50;;;14.10;99.90;;;;;;5043250;28;20211;-69
2021/10/08 10:37:11;;;;;;;20.97;14.17;;;14.40;99.90;;;;;;5031988;27;20207;-69
2021/10/08 10:39:40;;;;;;;19.37;12.30;;;14.20;99.90;;;;;;5038118;27;20231;-70
2021/10/08 10:42:15;;;;;;;18.10;11.80;;;14.20;99.90;;;;;;5047441;27;20207;-69
2021/10/08 10:45:13;;;;;;;17.80;13.07;;;14.50;99.90;;;;;;5034336;27;20618;-69
2021/10/08 10:47:41;;;;;;;19.90;13.37;;;14.60;99.90;;;;;;5038071;27;20223;-69
2021/10/08 10:50:15;;;;;;;21.63;13.83;;;14.60;99.90;;;;;;5026751;27;20203;-69
2021/10/08 10:52:51;;;;;;;18.60;13.20;;;14.70;99.90;;;;;;5033087;27;20206;-69
2021/10/08 10:55:22;;;;;;;19.73;13.10;;;15.00;99.90;;;;;;5035985;27;20547;-70
2021/10/08 10:57:58;;;;;;;22.33;15.07;;;15.00;99.90;;;;;;5033009;27;20294;-69
2021/10/08 11:00:44;;;;;;;23.43;16.00;;;14.90;99.90;;;;;;5035689;27;20285;-69
2021/10/08 11:03:17;;;;;;;23.03;15.40;;;14.80;99.90;;;;;;5037521;27;20227;-69
2021/10/08 11:06:10;;;;;;;22.70;14.60;;;15.10;99.90;;;;;;5038697;27;20206;-69
2021/10/08 11:09:00;;;;;;;24.87;17.13;;;15.20;99.90;;;;;;5038000;27;20299;-69
2021/10/08 11:11:28;;;;;;;23.70;17.37;;;15.20;99.90;;;;;;5045321;27;20622;-69
2021/10/08 11:14:19;;;;;;;26.85;17.65;;;15.20;99.90;;;;;;5038898;27;20665;-69
2021/10/08 11:16:46;;;;;;;23.27;16.25;;;15.20;99.90;;;;;;5022587;27;20605;-70
2021/10/08 11:19:38;;;;;;;26.40;17.33;;;15.50;99.90;;;;;;5028887;27;20211;-70
2021/10/08 11:22:06;;;;;;;24.55;17.55;;;15.60;99.90;;;;;;5019219;28;20207;-69
2021/10/08 11:24:33;;;;;;;24.20;18.10;;;15.50;99.90;;;;;;5030475;27;20263;-70
2021/10/08 11:27:03;;;;;;;26.27;18.20;;;15.50;99.90;;;;;;5020911;28;20264;-69
2021/10/08 11:29:33;;;;;;;27.37;19.03;;;15.50;99.90;;;;;;5023766;27;20288;-70
2021/10/08 11:32:11;;;;;;;29.53;19.47;;;15.80;99.90;;;;;;5027179;27;20212;-70
2021/10/08 11:34:52;;;;;;;26.55;18.85;;;16.00;99.90;;;;;;5018347;27;20207;-69
2021/10/08 11:37:19;;;;;;;28.03;19.77;;;16.00;99.90;;;;;;5024543;27;20211;-69
2021/10/08 11:39:47;;;;;;;27.75;19.15;;;15.80;99.90;;;;;;5019817;27;20501;-69
2021/10/08 11:42:17;;;;;;;26.52;18.23;;;16.00;99.90;;;;;;5028194;27;20568;-70
2021/10/08 11:44:56;;;;;;;27.02;18.38;;;16.40;99.90;;;;;;5027602;27;20231;-70
2021/10/08 11:47:28;;;;;;;25.67;17.40;;;16.40;99.90;;;;;;5022863;28;20208;-69
2021/10/08 11:52:48;;;;;;;25.60;18.60;;;16.20;99.90;;;;;;5029407;28;20612;-69
2021/10/08 11:55:18;;;;;;;29.30;18.65;;;16.10;99.90;;;;;;5023733;28;20297;-70
2021/10/08 11:58:04;;;;;;;27.55;19.13;;;16.30;99.90;;;;;;5017491;28;20265;-69
2021/10/08 12:00:37;;;;;;;26.10;17.95;;;16.60;99.90;;;;;;5038123;27;20212;-70
2021/10/08 12:03:06;;;;;;;25.00;18.15;;;16.50;99.90;;;;;;5028074;27;20302;-69
2021/10/08 12:05:51;;;;;;;24.83;17.30;;;16.70;99.90;;;;;;5026133;27;20673;-69
2021/10/08 12:08:20;;;;;;;24.80;18.15;;;16.90;99.90;;;;;;5026513;28;20211;-69
2021/10/08 12:10:58;;;;;;;23.83;17.38;;;17.00;99.90;;;;;;5017556;28;20212;-69
2021/10/08 12:13:41;;;;;;;22.95;16.65;;;16.70;99.90;;;;;;5027654;28;20260;-69
2021/10/08 12:16:09;;;;;;;23.67;16.73;;;16.60;99.90;;;;;;5021239;28;20704;-69
2021/10/08 12:18:36;;;;;;;22.50;16.35;;;16.30;99.90;;;;;;5019392;28;20260;-70
2021/10/08 12:21:11;;;;;;;22.35;16.45;;;16.30;99.90;;;;;;5021171;28;20206;-69
2021/10/08 12:23:39;;;;;;;24.98;16.30;;;16.50;99.90;;;;;;5025247;28;20284;-69
2021/10/08 12:26:06;;;;;;;22.95;16.42;;;16.40;99.90;;;;;;5018855;28;20910;-69
2021/10/08 12:28:33;;;;;;;25.77;17.75;;;16.30;99.90;;;;;;5016961;28;20260;-70
2021/10/08 12:31:05;;;;;;;22.48;15.90;;;16.20;99.90;;;;;;5024466;28;20273;-69
2021/10/08 12:33:34;;;;;;;23.20;15.90;;;16.00;99.90;;;;;;5022548;28;20216;-69
2021/10/08 12:36:22;;;;;;;24.48;16.50;;;16.00;99.90;;;;;;5024866;28;20606;-69
2021/10/08 12:39:06;;;;;;;21.90;15.25;;;16.00;99.90;;;;;;5016644;28;20577;-69
2021/10/08 12:41:41;;;;;;;23.02;16.50;;;16.00;99.90;;;;;;5023609;28;20204;-69
2021/10/08 12:44:13;;;;;;;22.17;15.52;;;16.40;99.90;;;;;;5016966;28;20597;-69
2021/10/08 12:46:43;;;;;;;21.23;14.85;;;16.70;99.90;;;;;;5021467;28;20207;-69
2021/10/08 12:49:11;;;;;;;20.48;14.45;;;17.10;99.90;;;;;;5020594;28;20257;-69
2021/10/08 12:51:45;;;;;;;21.55;14.65;;;17.40;99.90;;;;;;5022955;28;20240;-70
2021/10/08 12:54:18;;;;;;;21.00;15.10;;;17.60;99.90;;;;;;5032601;28;20214;-70
2021/10/08 12:56:46;;;;;;;20.73;14.50;;;17.50;99.90;;;;;;5023166;28;20269;-70